ADDS METAR Data INFO
IDs: Format: Raw Decoded Include TAF

Data at: 0039 UTC 21 Jan 2018

METAR for:KMIE (Muncie/Johnson Fld, IN, US)
Text:KMIE 202353Z 21007KT 10SM OVC018 06/00 A3006 RMK AO2 SLP181 T00560000 10072 20050 52012
Temperature: 5.6°C ( 42°F)
Dewpoint: 0.0°C ( 32°F) [RH = 67%]
Pressure (altimeter):30.06 inches Hg (1018.0 mb) [Sea level pressure: 1018.1 mb]
Winds:from the SSW (210 degrees) at 8 MPH (7 knots; 3.6 m/s)
Visibility:10 or more sm (16+ km)
Ceiling:1800 feet AGL
Clouds: overcast cloud deck at 1800 feet AGL